Bilbao, Spain

2:17 AM CEST on August 05, 2015 (GMT +0200)
Campo Volantin | | Change Station
CLOSE
Current Station
Personal Weather Station
Location: Bilbao, PAS VASCO
Elevation: 200 ft
Nearby Weather Stations

Elev 200 ft 43.27 °N, 2.93 °W | Updated 14 minutes ago

Partly Cloudy
Partly Cloudy
64.1 °F
Feels Like 64.1 °F
N
0.0
Wind Variable Wind from South
Gusts 0.0 mph

Today
High -- | Low -- °F
--% Chance of Precip.
Yesterday
High -- | Low -- °F
Precip. -- in
7:05 AM 9:29 PM
Waning Gibbous, 73% visible
Pressure 30.04 in
Visibility 6.2 miles
Clouds Few 5000 ft
Dew Point 61 °F
Humidity 89%
Rainfall 0.00 in
Snow Depth Not available.
UV 0 out of 12
Pollen Not available.
Air Quality Not available.
Flu Activity Not available.
METAR LEVT 050000Z 00000KT 9999 FEW050 14/14 Q1017

More Conditions Fewer Conditions

Pressure 30.04 in
Visibility 6.2 miles
Clouds Few 5000 ft
Dew Point 61 °F
Humidity 89%
Rainfall 0.00 in
Snow Depth Not available.
UV 0 out of 12
Pollen Not available.
Air Quality Not available.
Flu Activity Not available.
METAR LEVT 050000Z 00000KT 9999 FEW050 14/14 Q1017

More Conditions Fewer Conditions

10-Day Weather Forecast

×

Almanac

Astronomy

Aug. 05, 2015 Rise Set
Actual Time
Civil Twilight
Nautical Twilight
Astronomical Twilight
Moon
Length of Visible Light
Length of Day
Tomorrow will be .
, % of the Moon is Illuminated

Today's Extremes

Country Highs Country Lows

Community

WunderPhotos

Upload Photos

1,844,034 photos uploaded!

WunderBlogs® & News

Nearby

Air Quality

  Air Quality AQ Index Pollutant
Not available.

Snow Depth

Station Depth Elevation

Earthquake Activity

City Distance Mag. Time & Date
Minimum magnitude displayed is 2.5.

Coastal Water Temperatures

Place Temperature

Stations

Nearby Weather Stations

Station Location Temp. Windchill Dew Point Humidity Wind Precip. Elev Updated Type